Time;durP1;ratioP1;P1;durP2;ratioP2;P2;SDS_P1;SDS_P2;PMS_P1;PMS_P2;Temp;Humidity;BMP_temperature;BMP_pressure;BME280_temperature;BME280_humidity;BME280_pressure;Samples;Min_cycle;Max_cycle;Signal;HPM_P1;HPM_P2
2022/03/23 00:00:26;;;;;;;82.23;39.57;;;;;;;6.15;100.00;102734.19;7391659;19;20388;-56
2022/03/23 00:02:56;;;;;;;61.60;32.60;;;;;;;5.98;100.00;102740.31;7384495;19;20422;-53
2022/03/23 00:05:28;;;;;;;52.70;29.70;;;;;;;6.12;100.00;102731.38;7391116;19;20411;-53
2022/03/23 00:08:01;;;;;;;62.90;31.73;;;;;;;5.93;100.00;102727.09;7386956;19;20934;-50
2022/03/23 00:10:31;;;;;;;48.93;27.00;;;;;;;5.93;100.00;102726.16;7390452;19;20476;-48
2022/03/23 00:13:00;;;;;;;57.73;30.23;;;;;;;5.96;100.00;102729.03;7383096;19;20772;-54
2022/03/23 00:15:30;;;;;;;54.17;27.20;;;;;;;5.85;100.00;102728.00;7389845;19;20414;-51
2022/03/23 00:18:00;;;;;;;45.40;26.80;;;;;;;5.87;100.00;102728.16;7385243;19;20738;-51
2022/03/23 00:20:29;;;;;;;54.90;29.07;;;;;;;5.84;100.00;102728.78;7391921;19;20382;-54
2022/03/23 00:23:01;;;;;;;51.97;27.43;;;;;;;5.81;100.00;102729.38;7383928;19;20429;-53
2022/03/23 00:25:31;;;;;;;52.27;27.57;;;;;;;5.66;100.00;102726.31;7390796;19;20417;-52
2022/03/23 00:28:01;;;;;;;47.87;26.57;;;;;;;5.53;100.00;102721.72;7386173;19;20444;-50
2022/03/23 00:30:31;;;;;;;50.30;27.93;;;;;;;5.39;100.00;102719.53;7390744;19;20914;-50
2022/03/23 00:33:21;;;;;;;48.20;26.90;;;;;;;5.39;100.00;102720.41;7387200;19;20759;-55
2022/03/23 00:35:51;;;;;;;51.40;26.20;;;;;;;5.42;100.00;102714.66;7389359;19;20419;-53
2022/03/23 00:38:23;;;;;;;46.87;26.97;;;;;;;5.38;100.00;102717.69;7386265;19;20421;-54
2022/03/23 00:40:53;;;;;;;53.57;27.10;;;;;;;5.33;100.00;102713.81;7391024;19;20405;-50
2022/03/23 00:43:23;;;;;;;51.10;28.33;;;;;;;5.27;100.00;102709.91;7389618;19;20961;-49
2022/03/23 00:45:52;;;;;;;54.50;29.40;;;;;;;5.35;100.00;102707.19;7395844;19;20946;-48
2022/03/23 00:48:22;;;;;;;52.70;26.43;;;;;;;5.28;100.00;102710.78;7391723;19;20420;-52
2022/03/23 00:50:52;;;;;;;64.67;35.43;;;;;;;5.30;100.00;102708.38;7397006;19;20930;-54
2022/03/23 00:53:24;;;;;;;54.37;29.90;;;;;;;5.25;100.00;102707.97;7387854;19;20415;-52
2022/03/23 00:55:54;;;;;;;56.13;30.03;;;;;;;5.20;100.00;102706.63;7398593;19;20425;-53
2022/03/23 00:58:23;;;;;;;52.03;29.20;;;;;;;5.16;100.00;102708.00;7394311;19;20751;-54
2022/03/23 01:00:53;;;;;;;57.23;32.00;;;;;;;5.24;100.00;102706.16;7398370;19;20409;-51
2022/03/23 01:03:24;;;;;;;65.47;34.57;;;;;;;5.24;100.00;102701.94;7390257;19;20436;-49
2022/03/23 01:05:54;;;;;;;97.70;44.63;;;;;;;5.21;100.00;102703.31;7396401;19;20914;-53
2022/03/23 01:08:26;;;;;;;54.20;29.33;;;;;;;5.16;100.00;102695.19;7392405;19;20419;-52
2022/03/23 01:10:56;;;;;;;77.83;40.10;;;;;;;5.16;100.00;102697.75;7396875;19;20404;-54
2022/03/23 01:13:25;;;;;;;56.00;29.37;;;;;;;5.24;100.00;102699.38;7395237;19;20444;-51
2022/03/23 01:15:55;;;;;;;51.23;27.47;;;;;;;5.22;100.00;102689.75;7398939;19;21066;-54
2022/03/23 01:18:24;;;;;;;53.33;29.00;;;;;;;5.18;100.00;102697.91;7392972;19;20406;-50
2022/03/23 01:20:54;;;;;;;51.50;28.40;;;;;;;5.20;100.00;102686.16;7397943;19;20482;-49
2022/03/23 01:23:26;;;;;;;68.70;34.33;;;;;;;5.16;100.00;102684.97;7390104;19;20423;-51
2022/03/23 01:25:56;;;;;;;61.47;30.43;;;;;;;5.15;100.00;102690.84;7395694;19;20401;-48
2022/03/23 01:28:25;;;;;;;52.20;27.13;;;;;;;5.11;100.00;102692.22;7389218;19;20420;-45
2022/03/23 01:30:55;;;;;;;49.83;28.00;;;;;;;5.13;100.00;102684.69;7396350;19;20389;-53
2022/03/23 01:33:25;;;;;;;49.07;27.67;;;;;;;5.16;100.00;102692.63;7393053;19;20414;-50
2022/03/23 01:35:54;;;;;;;55.20;30.63;;;;;;;5.21;100.00;102693.97;7395116;19;20419;-50
2022/03/23 01:38:26;;;;;;;49.60;27.87;;;;;;;5.17;100.00;102688.44;7391804;19;20411;-46
2022/03/23 01:40:56;;;;;;;51.70;27.87;;;;;;;5.19;100.00;102690.38;7395814;19;20392;-54
2022/03/23 01:43:26;;;;;;;49.10;27.83;;;;;;;5.10;100.00;102692.06;7390047;19;20432;-50
2022/03/23 01:45:56;;;;;;;45.60;26.57;;;;;;;5.10;100.00;102694.63;7394688;19;21223;-51
2022/03/23 01:48:25;;;;;;;46.83;27.73;;;;;;;5.04;100.00;102692.38;7392160;19;20424;-50
2022/03/23 01:50:55;;;;;;;45.50;26.70;;;;;;;5.06;100.00;102682.28;7396732;19;20404;-50
2022/03/23 01:53:27;;;;;;;49.47;28.30;;;;;;;5.04;100.00;102683.78;7391454;19;20753;-52
2022/03/23 01:55:57;;;;;;;54.50;30.40;;;;;;;4.98;100.00;102685.00;7394710;19;21005;-53
2022/03/23 01:58:27;;;;;;;54.63;30.17;;;;;;;4.92;100.00;102679.31;7391182;19;20399;-50
2022/03/23 02:00:57;;;;;;;48.33;28.30;;;;;;;4.94;100.00;102672.69;7397389;19;20935;-53
2022/03/23 02:03:28;;;;;;;48.73;28.77;;;;;;;4.95;100.00;102677.06;7390563;19;20418;-50
2022/03/23 02:05:57;;;;;;;61.40;31.47;;;;;;;4.90;100.00;102675.69;7394435;19;20424;-49
2022/03/23 02:08:29;;;;;;;52.53;28.90;;;;;;;5.00;100.00;102673.28;7391830;19;20425;-51
2022/03/23 02:10:59;;;;;;;49.40;29.37;;;;;;;4.92;100.00;102671.63;7396569;19;20878;-53
2022/03/23 02:13:29;;;;;;;52.33;30.47;;;;;;;4.84;100.00;102670.91;7386982;19;20430;-54
2022/03/23 02:15:58;;;;;;;50.80;27.80;;;;;;;4.79;100.00;102676.31;7394189;19;20753;-53
2022/03/23 02:18:28;;;;;;;53.33;29.37;;;;;;;4.63;100.00;102674.88;7387550;19;20415;-48
2022/03/23 02:20:58;;;;;;;48.23;27.33;;;;;;;4.62;100.00;102674.72;7396513;19;20388;-51
2022/03/23 02:23:30;;;;;;;55.83;29.70;;;;;;;4.52;100.00;102680.59;7390090;19;20498;-53
2022/03/23 02:26:03;;;;;;;51.70;28.30;;;;;;;4.37;100.00;102665.56;7394874;19;20902;-55
2022/03/23 02:28:34;;;;;;;57.03;31.07;;;;;;;4.30;100.00;102673.34;7391301;19;20417;-49
2022/03/23 02:31:05;;;;;;;51.80;28.93;;;;;;;4.32;100.00;102666.75;7396254;19;20390;-47
2022/03/23 02:33:35;;;;;;;52.93;29.43;;;;;;;4.30;100.00;102663.13;7386174;19;20419;-50
2022/03/23 02:36:05;;;;;;;53.07;29.37;;;;;;;4.27;100.00;102667.97;7394358;19;20965;-49
2022/03/23 02:38:37;;;;;;;88.67;42.10;;;;;;;4.24;100.00;102662.53;7389013;19;20419;-51
2022/03/23 02:41:06;;;;;;;57.77;31.47;;;;;;;4.20;100.00;102669.00;7396251;19;21211;-50
2022/03/23 02:43:36;;;;;;;55.63;31.30;;;;;;;4.24;100.00;102662.53;7390753;19;20936;-52
2022/03/23 02:46:05;;;;;;;54.07;29.53;;;;;;;4.31;100.00;102664.97;7394383;19;20409;-53
2022/03/23 02:48:35;;;;;;;66.17;34.60;;;;;;;4.31;100.00;102664.97;7390025;19;20774;-50
2022/03/23 02:51:08;;;;;;;53.50;29.60;;;;;;;4.27;100.00;102663.78;7395776;19;20388;-53
2022/03/23 03:02:19;;;;;;;53.40;29.70;;;;;;;4.21;100.00;102672.47;7391055;19;20928;-54
2022/03/23 03:04:49;;;;;;;56.70;28.57;;;;;;;4.16;100.00;102667.81;7394939;19;20938;-53
2022/03/23 03:07:20;;;;;;;65.87;35.27;;;;;;;4.28;100.00;102665.56;7390877;19;20751;-52
2022/03/23 03:09:52;;;;;;;58.33;31.63;;;;;;;4.27;100.00;102670.53;7395230;19;20745;-54
2022/03/23 03:12:22;;;;;;;70.63;37.13;;;;;;;4.24;100.00;102680.41;7389948;19;20410;-53
2022/03/23 03:14:51;;;;;;;55.00;29.13;;;;;;;4.07;100.00;102674.56;7393490;19;20914;-49
2022/03/23 03:17:20;;;;;;;66.53;34.27;;;;;;;4.00;100.00;102682.38;7387476;19;20399;-49
2022/03/23 03:19:50;;;;;;;55.00;30.10;;;;;;;3.99;100.00;102673.81;7394178;19;20400;-53
2022/03/23 03:22:20;;;;;;;58.80;31.50;;;;;;;3.95;100.00;102673.34;7390209;19;20399;-51
2022/03/23 03:24:52;;;;;;;67.07;35.07;;;;;;;3.99;100.00;102675.47;7394678;19;20417;-55
2022/03/23 03:27:21;;;;;;;57.90;31.40;;;;;;;3.99;100.00;102678.03;7385745;19;21149;-52
2022/03/23 03:29:51;;;;;;;59.97;31.17;;;;;;;3.99;100.00;102672.91;7393290;19;20394;-51
2022/03/23 03:32:20;;;;;;;58.67;31.10;;;;;;;4.06;100.00;102672.78;7386986;19;20494;-51
2022/03/23 03:34:50;;;;;;;54.40;29.30;;;;;;;3.99;100.00;102675.47;7393047;19;20418;-53
2022/03/23 03:37:19;;;;;;;58.53;29.67;;;;;;;4.04;100.00;102679.38;7389920;19;20406;-50
2022/03/23 03:39:51;;;;;;;59.53;32.43;;;;;;;4.00;100.00;102667.06;7395304;19;20371;-49
2022/03/23 03:42:21;;;;;;;60.70;31.70;;;;;;;3.98;100.00;102678.75;7387069;19;20442;-49
2022/03/23 03:44:51;;;;;;;118.70;53.40;;;;;;;4.03;100.00;102680.13;7393661;19;20408;-51
2022/03/23 03:47:21;;;;;;;58.93;30.57;;;;;;;3.98;100.00;102679.66;7388782;19;20946;-51
2022/03/23 03:49:50;;;;;;;61.00;32.60;;;;;;;4.04;100.00;102676.81;7393659;19;20446;-50
2022/03/23 03:52:20;;;;;;;59.13;30.93;;;;;;;4.03;100.00;102677.56;7384215;19;20491;-48
2022/03/23 03:54:52;;;;;;;56.97;30.87;;;;;;;4.02;100.00;102681.78;7392920;19;20407;-53
2022/03/23 03:57:21;;;;;;;66.83;33.17;;;;;;;4.06;100.00;102677.88;7389246;19;21127;-53
2022/03/23 03:59:51;;;;;;;62.13;31.10;;;;;;;4.08;100.00;102678.94;7393359;19;20374;-52
2022/03/23 04:02:21;;;;;;;56.53;30.73;;;;;;;4.12;100.00;102677.56;7386486;19;20423;-56
2022/03/23 04:04:51;;;;;;;65.33;31.63;;;;;;;4.09;100.00;102680.72;7393434;19;20430;-50
2022/03/23 04:07:20;;;;;;;57.33;30.83;;;;;;;4.05;100.00;102679.53;7387818;19;21390;-51
2022/03/23 04:09:52;;;;;;;58.17;32.50;;;;;;;4.02;100.00;102680.88;7393107;19;20395;-53
2022/03/23 04:12:22;;;;;;;56.20;31.40;;;;;;;3.91;100.00;102683.25;7388470;19;20410;-51
2022/03/23 04:14:51;;;;;;;55.87;30.73;;;;;;;3.82;100.00;102677.25;7392450;19;20399;-48
2022/03/23 04:17:20;;;;;;;60.00;31.90;;;;;;;3.82;100.00;102676.31;7387247;19;20805;-52
2022/03/23 04:19:50;;;;;;;57.97;32.43;;;;;;;3.88;100.00;102682.97;7392566;19;20384;-50
2022/03/23 04:22:21;;;;;;;55.60;31.57;;;;;;;3.87;100.00;102686.25;7386459;19;20402;-54
2022/03/23 04:24:53;;;;;;;58.00;33.17;;;;;;;3.90;100.00;102678.91;7392480;19;20417;-52
2022/03/23 04:27:23;;;;;;;58.37;32.00;;;;;;;3.97;100.00;102682.06;7387966;19;20415;-52
2022/03/23 04:29:53;;;;;;;57.53;33.03;;;;;;;4.01;100.00;102679.06;7391461;19;20703;-55
2022/03/23 04:32:22;;;;;;;59.63;32.90;;;;;;;3.98;100.00;102674.56;7387816;19;20506;-51
2022/03/23 04:34:52;;;;;;;63.77;32.90;;;;;;;3.92;100.00;102677.41;7392250;19;20421;-49
2022/03/23 04:37:21;;;;;;;64.50;35.80;;;;;;;3.83;100.00;102673.94;7387640;19;20422;-51
2022/03/23 04:39:53;;;;;;;189.50;85.27;;;;;;;4.10;100.00;102674.84;7391922;19;20709;-49
2022/03/23 04:42:23;;;;;;;109.70;51.50;;;;;;;4.08;100.00;102678.94;7385305;19;20414;-50
2022/03/23 04:44:52;;;;;;;100.57;46.10;;;;;;;4.04;100.00;102669.13;7392117;19;20409;-51
2022/03/23 04:47:22;;;;;;;84.67;41.80;;;;;;;3.95;100.00;102674.25;7381795;19;20765;-49
2022/03/23 04:49:51;;;;;;;91.03;42.87;;;;;;;3.92;100.00;102676.50;7391926;19;20378;-53
2022/03/23 04:52:21;;;;;;;76.70;38.50;;;;;;;3.82;100.00;102676.31;7385220;19;20421;-54
2022/03/23 04:54:50;;;;;;;66.60;34.90;;;;;;;3.64;100.00;102677.19;7391837;19;20429;-53
2022/03/23 04:57:22;;;;;;;63.50;34.63;;;;;;;3.64;100.00;102677.19;7386373;19;20422;-53
2022/03/23 04:59:52;;;;;;;65.10;34.10;;;;;;;3.58;100.00;102680.78;7390719;19;20375;-48
2022/03/23 05:02:21;;;;;;;59.47;33.10;;;;;;;3.56;100.00;102685.72;7385702;19;20408;-51
2022/03/23 05:04:51;;;;;;;61.67;32.80;;;;;;;3.62;100.00;102683.81;7391355;19;20399;-48
2022/03/23 05:07:20;;;;;;;68.43;32.50;;;;;;;3.55;100.00;102693.22;7386352;19;20402;-49
2022/03/23 05:09:50;;;;;;;62.03;33.43;;;;;;;3.49;100.00;102689.31;7391492;19;20408;-54
2022/03/23 05:12:19;;;;;;;65.57;35.57;;;;;;;3.58;100.00;102689.34;7382559;19;20402;-51
2022/03/23 05:14:51;;;;;;;63.13;35.23;;;;;;;3.54;100.00;102693.97;7389554;19;20424;-50
2022/03/23 05:17:21;;;;;;;94.87;46.93;;;;;;;3.52;100.00;102696.38;7384790;19;20398;-51
2022/03/23 05:19:54;;;;;;;67.43;36.60;;;;;;;3.45;100.00;102693.94;7391130;19;20710;-54
2022/03/23 05:22:24;;;;;;;69.00;35.80;;;;;;;3.34;100.00;102696.28;7386037;19;20437;-51
2022/03/23 05:24:53;;;;;;;67.70;35.87;;;;;;;3.33;100.00;102697.03;7389742;19;20482;-55
2022/03/23 05:27:23;;;;;;;66.63;35.83;;;;;;;3.36;100.00;102697.38;7386804;19;20917;-54
2022/03/23 05:29:55;;;;;;;71.13;35.20;;;;;;;3.47;100.00;102697.53;7397200;19;20379;-51
2022/03/23 05:32:25;;;;;;;61.93;34.67;;;;;;;3.49;100.00;102693.53;7391156;19;20394;-54
2022/03/23 05:34:54;;;;;;;103.93;48.13;;;;;;;4.07;100.00;102694.09;7395338;19;20411;-53
2022/03/23 05:37:24;;;;;;;91.30;45.23;;;;;;;4.49;100.00;102682.81;7393005;19;20415;-53
2022/03/23 05:39:53;;;;;;;87.27;42.63;;;;;;;4.32;100.00;102694.88;7397872;19;20366;-54
2022/03/23 05:42:23;;;;;;;77.33;38.13;;;;;;;4.47;100.00;102692.94;7392887;19;21351;-51
2022/03/23 05:44:55;;;;;;;71.63;37.40;;;;;;;4.54;100.00;102696.97;7397607;19;20419;-52
2022/03/23 05:47:24;;;;;;;64.33;34.57;;;;;;;4.56;100.00;102693.81;7388364;19;20407;-50
2022/03/23 05:49:54;;;;;;;65.67;34.47;;;;;;;4.61;100.00;102695.91;7397400;19;20741;-47
2022/03/23 05:52:23;;;;;;;62.63;34.03;;;;;;;4.91;100.00;102700.53;7390248;19;20415;-51
2022/03/23 05:54:53;;;;;;;60.43;33.60;;;;;;;5.40;100.00;102701.72;7395903;19;20427;-54
2022/03/23 05:57:22;;;;;;;62.73;33.73;;;;;;;5.89;100.00;102704.50;7392317;19;20757;-53
2022/03/23 05:59:54;;;;;;;61.87;32.93;;;;;;;5.63;100.00;102707.19;7396066;19;20375;-51
2022/03/23 06:02:24;;;;;;;58.67;33.03;;;;;;;5.35;100.00;102704.63;7388620;19;20436;-54
2022/03/23 06:04:54;;;;;;;57.20;32.30;;;;;;;5.60;100.00;102714.59;7396851;19;20739;-50
2022/03/23 06:07:23;;;;;;;55.47;32.07;;;;;;;5.66;100.00;102699.81;7392599;19;20399;-52
2022/03/23 06:09:53;;;;;;;64.37;34.20;;;;;;;5.17;100.00;102707.22;7396218;19;20396;-49
2022/03/23 06:12:23;;;;;;;63.30;33.60;;;;;;;5.29;100.00;102706.59;7392982;19;20424;-51
2022/03/23 06:14:55;;;;;;;64.90;33.67;;;;;;;5.39;100.00;102709.28;7395573;19;20411;-50
2022/03/23 06:17:24;;;;;;;59.07;32.93;;;;;;;5.48;100.00;102720.38;7392686;19;20959;-52
2022/03/23 06:19:54;;;;;;;61.77;33.40;;;;;;;5.54;100.00;102720.94;7395495;19;20398;-55
2022/03/23 06:22:23;;;;;;;61.00;33.70;;;;;;;5.50;100.00;102729.09;7392046;19;20376;-52
2022/03/23 06:24:55;;;;;;;68.90;36.47;;;;;;;5.07;100.00;102725.94;7396253;19;20393;-52
2022/03/23 06:27:25;;;;;;;64.77;36.83;;;;;;;4.93;100.00;102727.16;7391048;19;20414;-49
2022/03/23 06:29:57;;;;;;;71.40;37.00;;;;;;;4.97;100.00;102728.38;7395959;19;20368;-53
2022/03/23 06:32:26;;;;;;;64.93;37.10;;;;;;;5.03;100.00;102722.94;7391840;19;20416;-53
2022/03/23 06:34:56;;;;;;;68.73;35.13;;;;;;;4.97;100.00;102724.16;7394666;19;20424;-50
2022/03/23 06:37:25;;;;;;;64.70;35.33;;;;;;;4.98;100.00;102725.94;7390738;19;20390;-52
2022/03/23 06:39:55;;;;;;;53.43;30.93;;;;;;;5.10;100.00;102726.22;7394225;19;20398;-51
2022/03/23 06:42:25;;;;;;;72.77;34.63;;;;;;;5.19;100.00;102726.22;7390231;19;21246;-49
2022/03/23 06:44:57;;;;;;;58.90;33.60;;;;;;;5.20;100.00;102728.00;7393457;19;20416;-50
2022/03/23 06:47:27;;;;;;;57.17;31.97;;;;;;;5.21;100.00;102740.03;7388146;19;20408;-51
2022/03/23 06:49:56;;;;;;;56.43;32.17;;;;;;;5.33;100.00;102741.97;7394412;19;20380;-46
2022/03/23 06:52:32;;;;;;;55.70;31.33;;;;;;;5.53;100.00;102742.19;7389267;19;20486;-48
2022/03/23 06:55:02;;;;;;;61.60;34.20;;;;;;;5.51;100.00;102740.25;7393181;19;20415;-49
2022/03/23 06:57:31;;;;;;;53.60;32.47;;;;;;;5.64;100.00;102742.31;7389977;19;20788;-49
2022/03/23 07:00:12;;;;;;;57.03;31.60;;;;;;;5.72;100.00;102741.34;7393910;19;20367;-51
2022/03/23 07:02:42;;;;;;;57.20;32.73;;;;;;;5.82;100.00;102748.25;7383043;19;20964;-47
2022/03/23 07:05:12;;;;;;;54.80;31.97;;;;;;;5.97;100.00;102747.84;7393848;19;20395;-47
2022/03/23 07:09:31;;;;;;;56.83;32.37;;;;;;;6.01;100.00;102755.06;7392179;19;20427;-50
2022/03/23 07:10:30;;;;;;;57.23;30.53;;;;;;;6.12;100.00;102748.41;7394788;19;20482;-47
2022/03/23 07:13:00;;;;;;;55.27;29.90;;;;;;;6.22;100.00;102757.06;7390028;19;20395;-48
2022/03/23 07:15:32;;;;;;;54.47;29.67;;;;;;;6.32;100.00;102745.97;7393390;19;20429;-48
2022/03/23 07:18:02;;;;;;;51.00;30.30;;;;;;;6.56;100.00;102751.53;7388259;19;20438;-52
2022/03/23 07:20:31;;;;;;;56.17;31.87;;;;;;;6.69;100.00;102755.22;7394636;19;20733;-50
2022/03/23 07:23:01;;;;;;;60.50;33.30;;;;;;;6.78;100.00;102756.03;7389049;19;20766;-52
2022/03/23 07:25:31;;;;;;;50.00;29.63;;;;;;;6.83;100.00;102759.91;7392117;19;20441;-50
2022/03/23 07:28:02;;;;;;;51.33;29.60;;;;;;;6.99;100.00;102757.03;7391136;19;20448;-53
2022/03/23 07:30:36;;;;;;;48.07;27.37;;;;;;;7.11;100.00;102761.44;7396396;19;20400;-52
2022/03/23 07:33:05;;;;;;;48.63;28.80;;;;;;;7.18;100.00;102763.78;7385099;19;20433;-52
2022/03/23 07:35:35;;;;;;;48.20;26.73;;;;;;;7.26;100.00;102761.91;7397104;19;20448;-50
2022/03/23 07:38:05;;;;;;;44.33;26.67;;;;;;;7.39;100.00;102764.75;7390585;19;20449;-47
2022/03/23 07:40:36;;;;;;;44.23;25.73;;;;;;;7.45;100.00;102763.50;7393426;19;20380;-51
2022/03/23 07:43:06;;;;;;;42.97;25.20;;;;;;;7.65;100.00;102766.09;7391219;19;20410;-49
2022/03/23 07:45:39;;;;;;;44.20;24.30;;;;;;;7.74;100.00;102771.13;7392888;19;20447;-52
2022/03/23 07:48:08;;;;;;;45.60;26.33;;;;;;;7.83;100.00;102765.88;7386305;19;20961;-52
2022/03/23 07:50:38;;;;;;;43.23;24.60;;;;;;;7.87;100.00;102770.53;7393756;19;20373;-49
2022/03/23 07:53:07;;;;;;;45.63;25.93;;;;;;;8.63;100.00;102770.78;7383793;19;20466;-52
2022/03/23 07:55:37;;;;;;;80.97;42.33;;;;;;;8.84;100.00;102763.00;7391965;19;20419;-52
2022/03/23 07:58:06;;;;;;;58.50;32.83;;;;;;;8.96;99.11;102764.00;7388297;19;20425;-53
2022/03/23 08:00:41;;;;;;;56.80;29.20;;;;;;;8.94;97.61;102760.41;7396009;19;20934;-52
2022/03/23 08:03:11;;;;;;;61.47;32.50;;;;;;;9.12;98.50;102771.28;7388936;19;20763;-49
2022/03/23 08:05:42;;;;;;;45.20;24.03;;;;;;;9.08;94.47;102763.19;7391192;19;20436;-47
2022/03/23 08:08:12;;;;;;;43.57;24.70;;;;;;;9.17;92.66;102764.81;7388177;19;20977;-50
2022/03/23 08:10:43;;;;;;;41.30;22.40;;;;;;;9.29;92.04;102769.16;7393692;19;20396;-54
2022/03/23 08:13:17;;;;;;;34.83;21.80;;;;;;;9.31;89.12;102767.59;7386033;19;20998;-52
2022/03/23 08:15:49;;;;;;;35.40;19.60;;;;;;;9.39;86.69;102770.78;7391775;19;20439;-49
2022/03/23 08:18:21;;;;;;;42.73;23.03;;;;;;;9.48;89.07;102763.75;7387685;19;20411;-52
2022/03/23 08:20:50;;;;;;;105.90;45.63;;;;;;;9.56;89.38;102764.38;7391739;19;20729;-52
2022/03/23 08:23:20;;;;;;;32.87;21.27;;;;;;;9.68;85.34;102772.16;7384757;19;20423;-53
2022/03/23 08:25:49;;;;;;;36.27;20.03;;;;;;;9.83;84.36;102764.69;7391076;19;20414;-48
2022/03/23 08:28:19;;;;;;;36.63;21.33;;;;;;;9.98;82.60;102770.13;7386262;19;20434;-54
2022/03/23 08:30:51;;;;;;;33.77;19.20;;;;;;;10.10;81.60;102765.91;7392326;19;20384;-49
2022/03/23 08:33:25;;;;;;;38.00;20.27;;;;;;;10.20;80.85;102756.31;7387794;19;20419;-48
2022/03/23 08:35:55;;;;;;;41.23;22.97;;;;;;;10.31;80.46;102762.28;7390166;19;20439;-55
2022/03/23 08:38:24;;;;;;;43.40;21.07;;;;;;;10.47;78.94;102756.59;7383491;19;20458;-54
2022/03/23 08:40:54;;;;;;;37.57;22.30;;;;;;;10.57;77.98;102760.75;7391802;19;20385;-51
2022/03/23 08:43:24;;;;;;;33.50;20.03;;;;;;;10.73;78.11;102757.63;7386477;19;20416;-53
2022/03/23 08:45:56;;;;;;;41.00;22.30;;;;;;;10.82;77.45;102765.16;7390718;19;20935;-50
2022/03/23 08:48:26;;;;;;;32.40;18.83;;;;;;;11.00;75.42;102763.91;7386223;19;20515;-50
2022/03/23 08:50:56;;;;;;;52.43;28.47;;;;;;;11.08;76.19;102761.88;7391781;19;20460;-48
2022/03/23 08:53:26;;;;;;;30.30;18.57;;;;;;;11.28;70.67;102763.28;7386243;19;20420;-46
2022/03/23 08:55:56;;;;;;;31.80;19.67;;;;;;;11.46;69.50;102761.09;7389478;19;21102;-49
2022/03/23 08:58:25;;;;;;;34.27;19.07;;;;;;;11.60;65.56;102767.22;7386726;19;20412;-47
2022/03/23 09:00:58;;;;;;;28.70;17.90;;;;;;;11.77;64.44;102766.59;7389403;19;20452;-51
2022/03/23 09:03:28;;;;;;;37.43;21.23;;;;;;;11.85;66.27;102768.03;7388146;19;20403;-50
2022/03/23 09:05:58;;;;;;;30.40;18.80;;;;;;;12.04;67.97;102770.22;7396599;19;20415;-50
2022/03/23 09:08:28;;;;;;;32.13;19.17;;;;;;;12.21;66.83;102770.47;7395506;19;20412;-48
2022/03/23 09:10:59;;;;;;;34.27;18.33;;;;;;;12.29;64.09;102767.59;7399156;19;20877;-49
2022/03/23 09:13:28;;;;;;;32.30;18.00;;;;;;;12.44;63.43;102772.00;7394525;19;20441;-49
2022/03/23 09:16:00;;;;;;;29.87;18.33;;;;;;;12.54;62.21;102764.03;7396981;19;20409;-55
2022/03/23 09:18:31;;;;;;;33.10;19.13;;;;;;;12.60;62.66;102767.84;7392737;19;20948;-52
2022/03/23 09:21:01;;;;;;;33.30;18.57;;;;;;;12.62;60.47;102764.53;7398849;19;20760;-51
2022/03/23 09:23:36;;;;;;;31.30;17.70;;;;;;;12.77;59.40;102759.44;7391232;19;20414;-54
2022/03/23 09:26:08;;;;;;;29.73;18.47;;;;;;;12.90;60.47;102757.66;7396109;19;20425;-49
2022/03/23 09:28:37;;;;;;;53.20;27.20;;;;;;;12.97;62.33;102765.00;7391651;19;20948;-50
2022/03/23 09:31:10;;;;;;;29.77;19.20;;;;;;;13.01;61.32;102756.66;7398711;19;20730;-53
2022/03/23 09:33:40;;;;;;;33.23;19.10;;;;;;;13.15;60.61;102762.72;7391848;19;20447;-53
2022/03/23 09:38:52;;;;;;;29.70;18.10;;;;;;;13.19;56.48;102759.50;7391159;19;20438;-53
2022/03/23 09:41:22;;;;;;;28.40;17.93;;;;;;;13.39;58.03;102762.47;7401538;19;20396;-50
2022/03/23 09:43:52;;;;;;;29.07;16.93;;;;;;;13.52;52.91;102761.53;7388389;19;20742;-52
2022/03/23 09:46:24;;;;;;;27.30;16.23;;;;;;;13.57;51.72;102754.94;7395634;19;20420;-50
2022/03/23 09:48:54;;;;;;;26.27;16.83;;;;;;;13.71;53.07;102763.59;7390238;19;20425;-52
2022/03/23 09:51:23;;;;;;;28.27;16.50;;;;;;;13.84;52.80;102753.94;7397150;19;20750;-48
2022/03/23 09:53:54;;;;;;;31.23;17.70;;;;;;;13.95;50.96;102763.25;7388443;19;20427;-53
2022/03/23 09:56:23;;;;;;;25.70;16.20;;;;;;;14.03;49.74;102754.25;7394856;19;20419;-54
2022/03/23 09:58:53;;;;;;;29.83;18.63;;;;;;;14.14;50.62;102752.28;7384834;19;20429;-53
2022/03/23 10:02:04;;;;;;;31.50;18.73;;;;;;;14.21;50.54;102755.22;7397409;19;20386;-55
2022/03/23 10:05:09;;;;;;;28.20;16.17;;;;;;;14.37;49.54;102752.72;7389971;19;20767;-53
2022/03/23 10:07:41;;;;;;;27.77;14.70;;;;;;;14.30;48.24;102759.25;7388011;19;20766;-51
2022/03/23 10:10:42;;;;;;;24.97;15.13;;;;;;;14.25;46.86;102754.63;7391579;19;20380;-52
2022/03/23 10:14:05;;;;;;;24.70;15.80;;;;;;;14.38;48.63;102754.50;7389878;19;20422;-55
2022/03/23 10:17:10;;;;;;;25.03;15.10;;;;;;;14.54;46.94;102742.41;7392607;19;20394;-50
2022/03/23 10:19:44;;;;;;;22.97;15.30;;;;;;;14.68;47.19;102746.66;7394182;19;20415;-56
2022/03/23 10:22:16;;;;;;;25.10;15.60;;;;;;;14.62;46.15;102741.16;7384069;19;20419;-49
2022/03/23 10:24:46;;;;;;;26.70;16.00;;;;;;;14.76;47.54;102746.25;7394199;19;21322;-53
2022/03/23 10:27:22;;;;;;;29.80;15.90;;;;;;;14.79;48.14;102746.41;7386360;19;20424;-54
2022/03/23 10:29:54;;;;;;;27.13;14.80;;;;;;;14.80;47.77;102741.31;7392902;19;20387;-50
2022/03/23 10:32:24;;;;;;;27.27;14.97;;;;;;;14.96;49.84;102735.25;7389451;19;20429;-47
2022/03/23 10:34:59;;;;;;;26.07;14.93;;;;;;;15.04;48.39;102739.97;7394266;19;21005;-50
2022/03/23 10:37:33;;;;;;;27.70;14.83;;;;;;;15.19;49.23;102733.03;7387160;19;20419;-49
2022/03/23 10:40:06;;;;;;;29.60;17.50;;;;;;;15.16;48.66;102734.53;7393853;19;20457;-51
2022/03/23 10:42:37;;;;;;;26.53;15.97;;;;;;;15.28;48.30;102734.34;7385909;19;20417;-55
2022/03/23 10:45:16;;;;;;;33.43;17.00;;;;;;;15.32;49.27;102734.56;7392610;19;20418;-51
2022/03/23 10:47:46;;;;;;;27.47;17.53;;;;;;;15.28;49.93;102732.59;7386846;19;20474;-50
2022/03/23 10:50:18;;;;;;;33.80;16.70;;;;;;;15.18;48.42;102739.03;7394191;19;20394;-53
2022/03/23 10:52:59;;;;;;;31.50;15.57;;;;;;;15.39;49.74;102728.00;7384989;19;20407;-52
2022/03/23 10:55:30;;;;;;;31.00;16.40;;;;;;;15.43;49.48;102723.84;7393858;19;20417;-57
2022/03/23 10:58:27;;;;;;;26.20;15.50;;;;;;;15.48;51.08;102730.22;7385312;19;20417;-49
2022/03/23 11:00:59;;;;;;;25.33;16.40;;;;;;;15.56;51.95;102725.38;7395076;19;20393;-54
2022/03/23 11:03:52;;;;;;;31.47;19.57;;;;;;;15.43;49.62;102721.25;7386326;19;20419;-54
2022/03/23 11:06:29;;;;;;;25.97;15.80;;;;;;;15.41;49.75;102721.16;7392199;19;20457;-53
2022/03/23 11:15:46;;;;;;;26.93;16.73;;;;;;;15.36;51.31;102710.53;7385938;19;20762;-52
2022/03/23 11:17:30;;;;;;;31.33;17.67;;;;;;;15.41;50.22;102708.16;7387680;19;20418;-58
2022/03/23 11:20:03;;;;;;;31.37;17.27;;;;;;;15.71;52.76;102712.28;7393442;19;20386;-55
2022/03/23 11:22:32;;;;;;;29.60;17.43;;;;;;;15.84;51.35;102714.69;7384871;19;20762;-57
2022/03/23 11:25:06;;;;;;;31.43;18.67;;;;;;;15.97;51.49;102710.16;7393776;19;20425;-58
2022/03/23 11:27:36;;;;;;;33.43;17.13;;;;;;;15.80;52.42;102707.56;7384494;19;20423;-56
2022/03/23 11:30:07;;;;;;;32.40;17.03;;;;;;;15.65;51.74;102705.06;7393002;19;20743;-56
2022/03/23 11:32:37;;;;;;;32.83;18.13;;;;;;;15.68;52.06;102702.59;7386397;19;20425;-54
2022/03/23 11:35:08;;;;;;;27.00;16.70;;;;;;;15.83;54.55;102697.31;7393331;19;20394;-55
2022/03/23 11:37:38;;;;;;;31.27;16.67;;;;;;;15.96;55.72;102696.25;7386204;19;20418;-54
2022/03/23 11:40:13;;;;;;;32.10;16.47;;;;;;;15.93;55.49;102688.28;7395860;19;20389;-55
2022/03/23 11:42:42;;;;;;;32.17;18.40;;;;;;;15.94;55.40;102690.06;7386873;19;20792;-56
2022/03/23 11:45:14;;;;;;;29.13;17.50;;;;;;;16.00;57.69;102689.50;7392651;19;20442;-56